createdAt,value
2023-01-17T00:00:27.394Z,939.02
2023-01-17T00:01:27.171Z,938.95
2023-01-17T00:02:27.156Z,939.03
2023-01-17T00:03:27.090Z,939.00
2023-01-17T00:04:27.185Z,939.01
2023-01-17T00:05:26.975Z,938.92
2023-01-17T00:06:27.196Z,938.96
2023-01-17T00:07:26.884Z,938.94
2023-01-17T00:08:26.832Z,938.92
2023-01-17T00:09:27.025Z,938.93
2023-01-17T00:10:27.065Z,938.94
2023-01-17T00:11:26.831Z,938.88
2023-01-17T00:12:26.636Z,938.86
2023-01-17T00:13:26.832Z,938.88
2023-01-17T00:14:26.842Z,938.89
2023-01-17T00:15:26.494Z,938.83
2023-01-17T00:16:27.677Z,938.85
2023-01-17T00:17:26.388Z,938.88
2023-01-17T00:18:26.672Z,938.85
2023-01-17T00:19:26.298Z,938.85
2023-01-17T00:20:26.241Z,938.88
2023-01-17T00:21:26.482Z,938.89
2023-01-17T00:22:26.329Z,938.88
2023-01-17T00:23:26.298Z,938.83
2023-01-17T00:24:26.060Z,938.89
2023-01-17T00:25:26.306Z,938.91
2023-01-17T00:26:25.962Z,938.88
2023-01-17T00:27:26.118Z,938.89
2023-01-17T00:28:25.879Z,938.88
2023-01-17T00:29:25.819Z,938.88
2023-01-17T00:30:25.760Z,938.87
2023-01-17T00:31:25.984Z,938.87
2023-01-17T00:32:25.661Z,938.87
2023-01-17T00:33:25.797Z,938.88
2023-01-17T00:34:25.841Z,938.83
2023-01-17T00:35:25.789Z,938.88
2023-01-17T00:36:25.464Z,938.86
2023-01-17T00:37:25.442Z,938.84
2023-01-17T00:38:25.392Z,938.82
2023-01-17T00:39:25.597Z,938.85
2023-01-17T00:40:25.268Z,938.81
2023-01-17T00:41:25.298Z,938.82
2023-01-17T00:42:25.177Z,938.81
2023-01-17T00:43:25.126Z,938.77
2023-01-17T00:44:25.079Z,938.78
2023-01-17T00:45:25.332Z,938.83
2023-01-17T00:46:24.979Z,938.79
2023-01-17T00:47:25.141Z,938.81
2023-01-17T00:48:24.896Z,938.83
2023-01-17T00:49:24.852Z,938.86
2023-01-17T00:50:24.789Z,938.82
2023-01-17T00:51:24.959Z,938.85
2023-01-17T00:52:24.691Z,938.85
2023-01-17T00:53:24.876Z,938.83
2023-01-17T00:54:24.591Z,938.85
2023-01-17T00:55:24.549Z,938.86
2023-01-17T00:56:24.495Z,938.87
2023-01-17T00:57:24.801Z,938.85
2023-01-17T00:58:24.394Z,938.85
2023-01-17T00:59:24.415Z,938.89
2023-01-17T01:00:24.303Z,938.90
2023-01-17T01:01:24.397Z,938.87
2023-01-17T01:02:24.786Z,938.86
2023-01-17T01:03:24.230Z,938.85
2023-01-17T01:04:24.112Z,938.86
2023-01-17T01:05:24.245Z,938.85
2023-01-17T01:06:24.007Z,938.85
2023-01-17T01:07:23.961Z,938.87
2023-01-17T01:08:23.960Z,938.87
2023-01-17T01:09:24.023Z,938.88
2023-01-17T01:10:23.975Z,938.87
2023-01-17T01:11:23.777Z,938.87
2023-01-17T01:12:23.788Z,938.87
2023-01-17T01:13:23.678Z,938.90
2023-01-17T01:14:23.809Z,938.80
2023-01-17T01:15:23.585Z,938.82
2023-01-17T01:16:23.706Z,938.80
2023-01-17T01:17:23.476Z,938.83
2023-01-17T01:18:23.424Z,938.82
2023-01-17T01:19:23.377Z,938.84
2023-01-17T01:20:23.445Z,938.80
2023-01-17T01:21:23.491Z,938.77
2023-01-17T01:22:23.447Z,938.80
2023-01-17T01:23:23.193Z,938.77
2023-01-17T01:24:23.133Z,938.78
2023-01-17T01:25:23.089Z,938.81
2023-01-17T01:26:24.092Z,938.71
2023-01-17T01:27:23.100Z,938.71
2023-01-17T01:28:23.082Z,938.72
2023-01-17T01:29:22.891Z,938.69
2023-01-17T01:30:22.846Z,938.70
2023-01-17T01:31:22.842Z,938.73
2023-01-17T01:32:22.904Z,938.71
2023-01-17T01:33:22.772Z,938.68
2023-01-17T01:34:22.730Z,938.70
2023-01-17T01:35:22.603Z,938.68
2023-01-17T01:36:22.547Z,938.70
2023-01-17T01:37:22.522Z,938.65
2023-01-17T01:38:22.753Z,938.66
2023-01-17T01:39:22.405Z,938.66
2023-01-17T01:40:22.557Z,938.66
2023-01-17T01:41:22.306Z,938.66
2023-01-17T01:42:22.258Z,938.65
2023-01-17T01:43:22.381Z,938.67
2023-01-17T01:44:22.182Z,938.66
2023-01-17T01:45:22.247Z,938.59
2023-01-17T01:46:22.060Z,938.59
2023-01-17T01:47:22.200Z,938.63
2023-01-17T01:48:21.962Z,938.62
2023-01-17T01:49:22.006Z,938.57
2023-01-17T01:50:22.066Z,938.65
2023-01-17T01:51:22.027Z,938.62
2023-01-17T01:52:21.765Z,938.59
2023-01-17T01:53:21.830Z,938.60
2023-01-17T01:54:21.854Z,938.62
2023-01-17T01:55:21.623Z,938.63
2023-01-17T01:56:21.653Z,938.65
2023-01-17T01:57:21.713Z,938.63
2023-01-17T01:58:21.662Z,938.63
2023-01-17T01:59:21.434Z,938.66
2023-01-17T02:00:21.375Z,938.66
2023-01-17T02:01:21.416Z,938.64
2023-01-17T02:02:21.491Z,938.63
2023-01-17T02:03:21.228Z,938.63
2023-01-17T02:04:21.303Z,938.57
2023-01-17T02:05:21.129Z,938.56
2023-01-17T02:06:21.101Z,938.58
2023-01-17T02:07:21.319Z,938.53
2023-01-17T02:08:20.979Z,938.56
2023-01-17T02:09:21.134Z,938.52
2023-01-17T02:10:20.882Z,938.56
2023-01-17T02:11:21.041Z,938.52
2023-01-17T02:12:20.790Z,938.52
2023-01-17T02:13:20.747Z,938.53
2023-01-17T02:14:20.761Z,938.53
2023-01-17T02:15:20.643Z,938.53
2023-01-17T02:16:20.724Z,938.53
2023-01-17T02:17:20.539Z,938.47
2023-01-17T02:18:20.741Z,938.50
2023-01-17T02:19:20.445Z,938.49
2023-01-17T02:20:20.500Z,938.45
2023-01-17T02:21:20.348Z,938.42
2023-01-17T02:22:20.519Z,938.42
2023-01-17T02:23:20.251Z,938.38
2023-01-17T02:24:20.199Z,938.41
2023-01-17T02:25:20.340Z,938.40
2023-01-17T02:26:20.105Z,938.34
2023-01-17T02:27:21.269Z,938.39
2023-01-17T02:28:20.091Z,938.39
2023-01-17T02:29:20.049Z,938.39
2023-01-17T02:30:19.923Z,938.29
2023-01-17T02:31:19.884Z,938.26
2023-01-17T02:32:19.865Z,938.23
2023-01-17T02:33:19.779Z,938.23
2023-01-17T02:34:19.885Z,938.20
2023-01-17T02:35:19.937Z,938.17
2023-01-17T02:36:19.644Z,938.20
2023-01-17T02:37:19.571Z,938.24
2023-01-17T02:38:19.715Z,938.14
2023-01-17T02:39:19.479Z,938.15
2023-01-17T02:40:19.539Z,938.11
2023-01-17T02:41:19.581Z,938.13
2023-01-17T02:42:19.327Z,938.14
2023-01-17T02:43:19.330Z,938.14
2023-01-17T02:44:19.229Z,938.17
2023-01-17T02:45:19.346Z,938.20
2023-01-17T02:46:19.130Z,938.16
2023-01-17T02:47:19.158Z,938.11
2023-01-17T02:48:19.167Z,938.13
2023-01-17T02:49:18.996Z,938.08
2023-01-17T02:50:19.178Z,938.09
2023-01-17T02:51:18.889Z,938.06
2023-01-17T02:52:18.989Z,938.07
2023-01-17T02:53:19.043Z,938.06
2023-01-17T02:54:18.738Z,938.05
2023-01-17T02:55:18.694Z,938.05
2023-01-17T02:56:18.814Z,938.10
2023-01-17T02:57:18.603Z,938.11
2023-01-17T02:58:18.645Z,938.08
2023-01-17T02:59:18.521Z,938.05
2023-01-17T03:00:18.463Z,938.01
2023-01-17T03:01:18.467Z,938.02
2023-01-17T03:02:18.564Z,937.98
2023-01-17T03:03:18.309Z,937.98
2023-01-17T03:04:18.459Z,937.96
2023-01-17T03:05:20.263Z,937.96
2023-01-17T03:06:18.163Z,938.00
2023-01-17T03:07:18.115Z,937.96
2023-01-17T03:08:18.283Z,937.94
2023-01-17T03:09:18.018Z,937.94
2023-01-17T03:10:18.096Z,937.95
2023-01-17T03:11:18.086Z,937.99
2023-01-17T03:12:17.872Z,937.95
2023-01-17T03:13:17.824Z,937.96
2023-01-17T03:14:17.919Z,937.98
2023-01-17T03:15:17.727Z,937.94
2023-01-17T03:16:17.772Z,937.98
2023-01-17T03:17:17.789Z,937.97
2023-01-17T03:18:17.585Z,937.97
2023-01-17T03:19:17.535Z,937.97
2023-01-17T03:20:17.657Z,937.93
2023-01-17T03:21:17.433Z,937.96
2023-01-17T03:22:17.468Z,937.93
2023-01-17T03:23:17.342Z,937.91
2023-01-17T03:24:17.293Z,937.88
2023-01-17T03:25:17.240Z,937.90
2023-01-17T03:26:17.293Z,937.87
2023-01-17T03:27:17.352Z,937.86
2023-01-17T03:28:17.308Z,937.83
2023-01-17T03:29:17.053Z,937.81
2023-01-17T03:30:16.999Z,937.79
2023-01-17T03:31:16.982Z,937.78
2023-01-17T03:32:17.131Z,937.78
2023-01-17T03:33:16.880Z,937.79
2023-01-17T03:34:16.952Z,937.78
2023-01-17T03:35:16.777Z,937.81
2023-01-17T03:36:16.715Z,937.79
2023-01-17T03:37:16.667Z,937.80
2023-01-17T03:38:16.873Z,937.83
2023-01-17T03:39:16.724Z,937.80
2023-01-17T03:40:16.682Z,937.77
2023-01-17T03:41:16.509Z,937.74
2023-01-17T03:42:16.427Z,937.75
2023-01-17T03:43:16.396Z,937.76
2023-01-17T03:44:16.822Z,937.75
2023-01-17T03:45:16.308Z,937.76
2023-01-17T03:46:16.413Z,937.73
2023-01-17T03:47:16.183Z,937.74
2023-01-17T03:48:16.133Z,937.77
2023-01-17T03:49:16.085Z,937.79
2023-01-17T03:50:16.442Z,937.77
2023-01-17T03:51:15.993Z,937.71
2023-01-17T03:52:16.052Z,937.71
2023-01-17T03:53:15.899Z,937.71
2023-01-17T03:54:15.861Z,937.66
2023-01-17T03:55:15.806Z,937.63
2023-01-17T03:56:15.934Z,937.63
2023-01-17T03:57:15.881Z,937.58
2023-01-17T03:58:15.659Z,937.62
2023-01-17T03:59:15.689Z,937.58
2023-01-17T04:00:15.694Z,937.55
2023-01-17T04:01:15.603Z,937.57
2023-01-17T04:02:16.020Z,937.53
2023-01-17T04:03:15.414Z,937.49
2023-01-17T04:04:15.522Z,937.48
2023-01-17T04:05:15.322Z,937.41
2023-01-17T04:06:15.266Z,937.35
2023-01-17T04:07:15.226Z,937.37
2023-01-17T04:08:15.355Z,937.37
2023-01-17T04:09:15.129Z,937.33
2023-01-17T04:10:15.364Z,937.30
2023-01-17T04:11:15.025Z,937.31
2023-01-17T04:12:15.016Z,937.25
2023-01-17T04:13:15.179Z,937.26
2023-01-17T04:14:14.883Z,937.25
2023-01-17T04:15:14.989Z,937.21
2023-01-17T04:16:14.797Z,937.17
2023-01-17T04:17:14.801Z,937.16
2023-01-17T04:18:15.012Z,937.11
2023-01-17T04:19:14.636Z,937.07
2023-01-17T04:20:14.820Z,937.07
2023-01-17T04:21:14.536Z,937.00
2023-01-17T04:22:14.651Z,937.02
2023-01-17T04:23:14.442Z,937.03
2023-01-17T04:24:15.120Z,937.02
2023-01-17T04:25:14.343Z,937.02
2023-01-17T04:26:14.658Z,936.99
2023-01-17T04:27:14.296Z,937.03
2023-01-17T04:28:14.265Z,936.97
2023-01-17T04:29:14.155Z,936.94
2023-01-17T04:30:14.104Z,936.94
2023-01-17T04:31:14.203Z,936.91
2023-01-17T04:32:14.296Z,936.92
2023-01-17T04:33:13.952Z,936.91
2023-01-17T04:34:14.119Z,936.85
2023-01-17T04:35:13.859Z,936.81
2023-01-17T04:36:13.814Z,936.77
2023-01-17T04:37:13.920Z,936.76
2023-01-17T04:38:13.975Z,936.73
2023-01-17T04:39:13.732Z,936.67
2023-01-17T04:40:13.624Z,936.64
2023-01-17T04:41:13.758Z,936.63
2023-01-17T04:42:13.557Z,936.57
2023-01-17T04:43:13.463Z,936.55
2023-01-17T04:44:13.582Z,936.58
2023-01-17T04:45:13.624Z,936.58
2023-01-17T04:46:13.606Z,936.59
2023-01-17T04:47:13.267Z,936.56
2023-01-17T04:48:13.227Z,936.57
2023-01-17T04:49:13.401Z,936.54
2023-01-17T04:50:13.120Z,936.60
2023-01-17T04:51:13.407Z,936.58
2023-01-17T04:52:13.022Z,936.58
2023-01-17T04:53:13.223Z,936.58
2023-01-17T04:54:13.028Z,936.51
2023-01-17T04:55:12.881Z,936.48
2023-01-17T04:56:13.046Z,936.50
2023-01-17T04:57:12.901Z,936.51
2023-01-17T04:58:12.850Z,936.51
2023-01-17T04:59:12.679Z,936.46
2023-01-17T05:00:12.632Z,936.47
2023-01-17T05:01:12.803Z,936.48
2023-01-17T05:02:12.539Z,936.47
2023-01-17T05:03:12.683Z,936.48
2023-01-17T05:04:12.514Z,936.42
2023-01-17T05:05:12.566Z,936.47
2023-01-17T05:06:12.496Z,936.46
2023-01-17T05:07:12.283Z,936.44
2023-01-17T05:08:12.313Z,936.45
2023-01-17T05:09:12.207Z,936.43
2023-01-17T05:10:12.316Z,936.47
2023-01-17T05:11:12.097Z,936.42
2023-01-17T05:12:12.047Z,936.43
2023-01-17T05:13:12.140Z,936.41
2023-01-17T05:14:11.937Z,936.43
2023-01-17T05:15:12.151Z,936.43
2023-01-17T05:16:11.842Z,936.38
2023-01-17T05:17:11.966Z,936.44
2023-01-17T05:18:11.970Z,936.38
2023-01-17T05:19:11.697Z,936.43
2023-01-17T05:20:11.776Z,936.39
2023-01-17T05:21:11.630Z,936.39
2023-01-17T05:22:11.792Z,936.37
2023-01-17T05:23:11.499Z,936.38
2023-01-17T05:24:11.450Z,936.37
2023-01-17T05:25:11.609Z,936.37
2023-01-17T05:26:11.344Z,936.37
2023-01-17T05:27:11.344Z,936.37
2023-01-17T05:28:11.432Z,936.32
2023-01-17T05:29:11.198Z,936.33
2023-01-17T05:30:11.146Z,936.34
2023-01-17T05:31:11.311Z,936.36
2023-01-17T05:32:11.056Z,936.34
2023-01-17T05:33:11.261Z,936.37
2023-01-17T05:34:10.950Z,936.33
2023-01-17T05:35:11.074Z,936.32
2023-01-17T05:36:10.852Z,936.34
2023-01-17T05:37:10.879Z,936.32
2023-01-17T05:38:10.755Z,936.27
2023-01-17T05:39:10.893Z,936.27
2023-01-17T05:40:10.657Z,936.25
2023-01-17T05:41:10.706Z,936.27
2023-01-17T05:42:10.563Z,936.23
2023-01-17T05:43:10.726Z,936.22
2023-01-17T05:44:10.580Z,936.24
2023-01-17T05:45:10.534Z,936.21
2023-01-17T05:46:10.382Z,936.14
2023-01-17T05:47:10.546Z,936.15
2023-01-17T05:48:10.263Z,936.15
2023-01-17T05:49:10.355Z,936.15
2023-01-17T05:50:10.415Z,936.10
2023-01-17T05:51:10.369Z,936.11
2023-01-17T05:52:10.059Z,936.14
2023-01-17T05:53:10.180Z,936.16
2023-01-17T05:54:09.961Z,936.15
2023-01-17T05:55:10.203Z,936.15
2023-01-17T05:56:09.885Z,936.11
2023-01-17T05:57:09.998Z,936.17
2023-01-17T05:58:09.765Z,936.11
2023-01-17T05:59:11.075Z,936.04
2023-01-17T06:03:47.523Z,935.95
2023-01-17T06:04:46.960Z,935.96
2023-01-17T06:05:46.876Z,935.93
2023-01-17T06:06:46.928Z,935.88
2023-01-17T06:07:46.768Z,935.84
2023-01-17T06:08:46.951Z,935.88
2023-01-17T06:09:46.692Z,935.89
2023-01-17T06:10:46.755Z,935.85
2023-01-17T06:11:46.762Z,935.89
2023-01-17T06:12:46.515Z,935.90
2023-01-17T06:13:46.576Z,935.89
2023-01-17T06:14:46.417Z,935.87
2023-01-17T06:15:46.870Z,935.81
2023-01-17T06:16:46.316Z,935.86
2023-01-17T06:17:46.272Z,935.86
2023-01-17T06:18:46.220Z,935.77
2023-01-17T06:19:46.309Z,935.77
2023-01-17T06:20:46.115Z,935.76
2023-01-17T06:21:46.324Z,935.78
2023-01-17T06:22:46.025Z,935.68
2023-01-17T06:23:45.979Z,935.70
2023-01-17T06:24:45.923Z,935.68
2023-01-17T06:25:46.162Z,935.64
2023-01-17T06:26:45.819Z,935.63
2023-01-17T06:27:45.889Z,935.58
2023-01-17T06:28:45.968Z,935.56
2023-01-17T06:29:45.670Z,935.53
2023-01-17T06:30:45.781Z,935.52
2023-01-17T06:31:45.577Z,935.53
2023-01-17T06:32:45.795Z,935.48
2023-01-17T06:33:45.656Z,935.54
2023-01-17T06:34:45.602Z,935.53
2023-01-17T06:35:45.379Z,935.54
2023-01-17T06:36:45.631Z,935.59
2023-01-17T06:37:45.289Z,935.55
2023-01-17T06:38:45.429Z,935.54
2023-01-17T06:39:45.211Z,935.55
2023-01-17T06:40:45.238Z,935.56
2023-01-17T06:41:45.241Z,935.52
2023-01-17T06:42:45.037Z,935.52
2023-01-17T06:43:45.257Z,935.50
2023-01-17T06:44:44.946Z,935.54
2023-01-17T06:45:45.272Z,935.57
2023-01-17T06:46:45.036Z,935.52
2023-01-17T06:47:44.787Z,935.51
2023-01-17T06:48:44.887Z,935.54
2023-01-17T06:49:44.689Z,935.50
2023-01-17T06:50:44.897Z,935.51
2023-01-17T06:51:44.612Z,935.55
2023-01-17T06:52:44.724Z,935.55
2023-01-17T06:53:44.716Z,935.60
2023-01-17T06:54:44.441Z,935.63
2023-01-17T06:55:44.534Z,935.63
2023-01-17T06:56:44.585Z,935.64
2023-01-17T06:57:44.545Z,935.62
2023-01-17T06:58:44.241Z,935.61
2023-01-17T06:59:44.198Z,935.64
2023-01-17T07:00:44.427Z,935.61
2023-01-17T07:01:44.123Z,935.63
2023-01-17T07:02:44.064Z,935.61
2023-01-17T07:03:44.201Z,935.62
2023-01-17T07:04:43.948Z,935.61
2023-01-17T07:05:43.919Z,935.63
2023-01-17T07:06:43.881Z,935.54
2023-01-17T07:07:44.002Z,935.54
2023-01-17T07:08:44.061Z,935.49
2023-01-17T07:09:43.813Z,935.46
2023-01-17T07:10:43.653Z,935.37
2023-01-17T07:11:43.632Z,935.31
2023-01-17T07:12:43.559Z,935.30
2023-01-17T07:13:43.639Z,935.21
2023-01-17T07:14:43.459Z,935.19
2023-01-17T07:15:43.657Z,935.20
2023-01-17T07:16:43.359Z,935.15
2023-01-17T07:17:43.518Z,935.14
2023-01-17T07:18:43.284Z,935.17
2023-01-17T07:19:43.477Z,935.17
2023-01-17T07:20:43.159Z,935.20
2023-01-17T07:21:43.283Z,935.24
2023-01-17T07:22:43.069Z,935.38
2023-01-17T07:23:43.307Z,935.39
2023-01-17T07:24:42.971Z,935.41
2023-01-17T07:25:43.131Z,935.46
2023-01-17T07:26:42.866Z,935.51
2023-01-17T07:27:42.923Z,935.50
2023-01-17T07:28:42.781Z,935.54
2023-01-17T07:29:43.140Z,935.49
2023-01-17T07:30:42.673Z,935.46
2023-01-17T07:31:42.772Z,935.47
2023-01-17T07:32:42.583Z,935.48
2023-01-17T07:33:42.762Z,935.47
2023-01-17T07:34:42.477Z,935.49
2023-01-17T07:35:42.569Z,935.48
2023-01-17T07:36:42.386Z,935.50
2023-01-17T07:37:42.329Z,935.50
2023-01-17T07:38:42.586Z,935.50
2023-01-17T07:39:42.228Z,935.51
2023-01-17T07:40:42.655Z,935.52
2023-01-17T07:41:42.667Z,935.53
2023-01-17T07:42:42.092Z,935.52
2023-01-17T07:43:42.034Z,935.51
2023-01-17T07:44:42.243Z,935.48
2023-01-17T07:45:41.942Z,935.44
2023-01-17T07:46:42.075Z,935.41
2023-01-17T07:47:41.864Z,935.35
2023-01-17T07:48:41.792Z,935.32
2023-01-17T07:49:41.743Z,935.26
2023-01-17T07:50:42.075Z,935.19
2023-01-17T07:51:41.648Z,935.16
2023-01-17T07:52:41.886Z,935.12
2023-01-17T07:53:41.571Z,935.02
2023-01-17T07:54:41.518Z,934.99
2023-01-17T07:55:41.461Z,934.90
2023-01-17T07:56:41.593Z,934.89
2023-01-17T07:57:41.357Z,934.84
2023-01-17T07:58:41.611Z,934.85
2023-01-17T07:59:41.256Z,934.77
2023-01-17T08:00:41.439Z,934.77
2023-01-17T08:01:41.257Z,934.71
2023-01-17T08:02:41.242Z,934.68
2023-01-17T08:03:41.124Z,934.74
2023-01-17T08:04:41.444Z,934.72
2023-01-17T08:05:40.976Z,934.76
2023-01-17T08:06:41.157Z,934.76
2023-01-17T08:07:40.899Z,934.77
2023-01-17T08:08:40.991Z,934.78
2023-01-17T08:09:40.771Z,934.73
2023-01-17T08:10:41.189Z,934.69
2023-01-17T08:11:40.675Z,934.68
2023-01-17T08:12:40.891Z,934.68
2023-01-17T08:13:40.582Z,934.67
2023-01-17T08:14:40.711Z,934.68
2023-01-17T08:15:40.482Z,934.70
2023-01-17T08:16:40.830Z,934.69
2023-01-17T08:17:40.380Z,934.71
2023-01-17T08:18:40.736Z,934.67
2023-01-17T08:19:40.284Z,934.64
2023-01-17T08:20:40.555Z,934.64
2023-01-17T08:21:40.189Z,934.62
2023-01-17T08:22:40.357Z,934.65
2023-01-17T08:23:40.099Z,934.73
2023-01-17T08:24:41.402Z,934.70
2023-01-17T08:25:40.022Z,934.72
2023-01-17T08:26:40.178Z,934.71
2023-01-17T08:27:40.249Z,934.63
2023-01-17T08:28:39.992Z,934.60
2023-01-17T08:29:39.810Z,934.57
2023-01-17T08:30:40.009Z,934.50
2023-01-17T08:31:39.773Z,934.48
2023-01-17T08:32:39.823Z,934.46
2023-01-17T08:33:39.640Z,934.41
2023-01-17T08:34:39.829Z,934.41
2023-01-17T08:35:39.515Z,934.39
2023-01-17T08:36:39.641Z,934.37
2023-01-17T08:37:39.708Z,934.35
2023-01-17T08:38:39.654Z,934.30
2023-01-17T08:39:39.314Z,934.22
2023-01-17T08:40:39.461Z,934.18
2023-01-17T08:41:39.223Z,934.09
2023-01-17T08:42:39.480Z,934.11
2023-01-17T08:43:39.124Z,934.11
2023-01-17T08:44:39.286Z,934.06
2023-01-17T08:45:39.054Z,934.04
2023-01-17T08:46:39.307Z,934.04
2023-01-17T08:47:38.936Z,934.06
2023-01-17T08:48:39.111Z,934.05
2023-01-17T08:49:38.848Z,934.02
2023-01-17T08:50:38.925Z,934.02
2023-01-17T08:51:38.732Z,933.96
2023-01-17T08:52:38.941Z,933.95
2023-01-17T08:53:38.634Z,933.89
2023-01-17T08:54:39.766Z,933.88
2023-01-17T08:55:38.801Z,933.88
2023-01-17T08:56:38.766Z,933.85
2023-01-17T08:57:38.446Z,933.87
2023-01-17T08:58:38.569Z,933.87
2023-01-17T08:59:38.351Z,933.85
2023-01-17T09:00:38.587Z,933.89
2023-01-17T09:01:38.412Z,933.90
2023-01-17T09:02:38.404Z,933.92
2023-01-17T09:03:40.698Z,933.96
2023-01-17T09:04:38.422Z,934.00
2023-01-17T09:05:38.059Z,934.00
2023-01-17T09:06:38.240Z,934.01
2023-01-17T09:07:38.275Z,934.00
2023-01-17T09:08:38.138Z,933.99
2023-01-17T09:09:37.882Z,934.02
2023-01-17T09:10:38.049Z,934.02
2023-01-17T09:11:37.791Z,933.97
2023-01-17T09:12:37.851Z,933.98
2023-01-17T09:13:37.917Z,933.99
2023-01-17T09:14:37.866Z,933.99
2023-01-17T09:15:37.598Z,933.94
2023-01-17T09:16:37.768Z,933.96
2023-01-17T09:17:37.523Z,933.95
2023-01-17T09:18:37.714Z,934.02
2023-01-17T09:19:37.751Z,934.01
2023-01-17T09:20:37.500Z,934.01
2023-01-17T09:21:37.286Z,934.03
2023-01-17T09:22:37.438Z,934.04
2023-01-17T09:23:37.191Z,933.98
2023-01-17T09:24:37.148Z,933.97
2023-01-17T09:25:37.113Z,933.99
2023-01-17T09:26:37.339Z,933.96
2023-01-17T09:27:37.004Z,933.96
2023-01-17T09:28:37.157Z,933.96
2023-01-17T09:29:36.915Z,934.02
2023-01-17T09:30:37.211Z,933.98
2023-01-17T09:31:37.024Z,934.00
2023-01-17T09:32:36.924Z,933.98
2023-01-17T09:33:36.709Z,933.98
2023-01-17T09:34:36.886Z,933.97
2023-01-17T09:35:36.616Z,933.91
2023-01-17T09:36:36.567Z,933.93
2023-01-17T09:37:36.518Z,933.93
2023-01-17T09:38:36.513Z,933.95
2023-01-17T09:39:36.424Z,933.98
2023-01-17T09:40:36.727Z,934.02
2023-01-17T09:41:36.332Z,934.05
2023-01-17T09:42:36.279Z,934.06
2023-01-17T09:43:36.237Z,934.11
2023-01-17T09:44:36.349Z,934.07
2023-01-17T09:45:36.197Z,934.13
2023-01-17T09:46:36.155Z,934.13
2023-01-17T09:47:36.103Z,934.12
2023-01-17T09:48:35.991Z,934.08
2023-01-17T09:49:35.939Z,934.07
2023-01-17T09:50:35.995Z,934.06
2023-01-17T09:51:36.045Z,934.06
2023-01-17T09:52:35.994Z,934.06
2023-01-17T09:53:35.749Z,934.03
2023-01-17T09:54:35.701Z,934.03
2023-01-17T09:55:35.702Z,934.09
2023-01-17T09:56:35.822Z,934.08
2023-01-17T09:57:35.603Z,934.07
2023-01-17T09:58:35.635Z,934.02
2023-01-17T09:59:35.923Z,934.05
2023-01-17T10:00:35.428Z,934.04
2023-01-17T10:01:35.509Z,934.02
2023-01-17T10:02:35.592Z,934.00
2023-01-17T10:03:35.812Z,934.02
2023-01-17T10:04:35.278Z,933.99
2023-01-17T10:05:35.182Z,933.98
2023-01-17T10:06:35.136Z,933.99
2023-01-17T10:07:35.090Z,933.96
2023-01-17T10:08:35.092Z,933.93
2023-01-17T10:09:35.022Z,933.93
2023-01-17T10:10:35.128Z,933.93
2023-01-17T10:11:34.899Z,933.92
2023-01-17T10:12:34.847Z,933.94
2023-01-17T10:13:34.840Z,933.94
2023-01-17T10:14:35.138Z,933.92
2023-01-17T10:15:34.733Z,933.90
2023-01-17T10:16:34.785Z,933.91
2023-01-17T10:17:34.616Z,933.88
2023-01-17T10:18:34.781Z,933.82
2023-01-17T10:19:34.521Z,933.79
2023-01-17T10:20:34.562Z,933.75
2023-01-17T10:21:34.631Z,933.70
2023-01-17T10:22:34.579Z,933.69
2023-01-17T10:23:34.351Z,933.67
2023-01-17T10:24:34.390Z,933.67
2023-01-17T10:25:34.229Z,933.68
2023-01-17T10:26:34.410Z,933.72
2023-01-17T10:27:34.159Z,933.68
2023-01-17T10:28:34.217Z,933.62
2023-01-17T10:29:34.064Z,933.60
2023-01-17T10:30:34.256Z,933.59
2023-01-17T10:31:33.946Z,933.58
2023-01-17T10:32:34.035Z,933.53
2023-01-17T10:33:34.097Z,933.52
2023-01-17T10:34:34.090Z,933.44
2023-01-17T10:35:33.766Z,933.43
2023-01-17T10:36:34.066Z,933.38
2023-01-17T10:37:33.671Z,933.33
2023-01-17T10:38:33.674Z,933.31
2023-01-17T10:39:33.587Z,933.34
2023-01-17T10:40:33.691Z,933.32
2023-01-17T10:41:33.517Z,933.38
2023-01-17T10:42:33.698Z,933.34
2023-01-17T10:43:33.398Z,933.33
2023-01-17T10:44:33.515Z,933.29
2023-01-17T10:45:33.305Z,933.36
2023-01-17T10:46:33.555Z,933.31
2023-01-17T10:47:33.211Z,933.29
2023-01-17T10:48:34.360Z,933.30
2023-01-17T10:49:33.339Z,933.28
2023-01-17T10:50:33.066Z,933.31
2023-01-17T10:51:33.153Z,933.27
2023-01-17T10:52:33.040Z,933.28
2023-01-17T10:53:32.974Z,933.31
2023-01-17T10:54:32.879Z,933.31
2023-01-17T10:55:32.837Z,933.30
2023-01-17T10:56:32.985Z,933.29
2023-01-17T10:57:32.731Z,933.28
2023-01-17T10:58:33.008Z,933.24
2023-01-17T10:59:32.635Z,933.27
2023-01-17T11:00:32.815Z,933.30
2023-01-17T11:01:32.645Z,933.32
2023-01-17T11:02:32.753Z,933.33
2023-01-17T11:03:32.445Z,933.27
2023-01-17T11:04:32.529Z,933.33
2023-01-17T11:05:32.591Z,933.29
2023-01-17T11:06:32.543Z,933.33
2023-01-17T11:07:32.349Z,933.29
2023-01-17T11:08:32.210Z,933.26
2023-01-17T11:09:32.365Z,933.25
2023-01-17T11:10:32.115Z,933.23
2023-01-17T11:11:32.181Z,933.22
2023-01-17T11:12:32.232Z,933.21
2023-01-17T11:13:32.000Z,933.21
2023-01-17T11:14:31.926Z,933.18
2023-01-17T11:15:32.063Z,933.17
2023-01-17T11:16:31.835Z,933.16
2023-01-17T11:17:32.011Z,933.10
2023-01-17T11:18:31.756Z,933.13
2023-01-17T11:19:31.689Z,933.09
2023-01-17T11:20:31.645Z,933.16
2023-01-17T11:21:31.833Z,933.13
2023-01-17T11:22:31.549Z,933.14
2023-01-17T11:23:31.655Z,933.16
2023-01-17T11:24:31.705Z,933.11
2023-01-17T11:25:31.406Z,933.13
2023-01-17T11:26:31.362Z,933.13
2023-01-17T11:27:31.468Z,933.12
2023-01-17T11:28:31.307Z,933.07
2023-01-17T11:29:31.291Z,933.02
2023-01-17T11:30:31.200Z,933.01
2023-01-17T11:31:31.303Z,932.93
2023-01-17T11:32:31.110Z,932.95
2023-01-17T11:33:31.682Z,932.92
2023-01-17T11:34:30.983Z,932.86
2023-01-17T11:35:31.033Z,932.88
2023-01-17T11:36:31.120Z,932.82
2023-01-17T11:37:31.051Z,932.77
2023-01-17T11:38:30.799Z,932.72
2023-01-17T11:39:30.838Z,932.72
2023-01-17T11:40:30.705Z,932.65
2023-01-17T11:41:30.861Z,932.66
2023-01-17T11:42:30.605Z,932.70
2023-01-17T11:43:30.683Z,932.72
2023-01-17T11:44:30.883Z,932.74
2023-01-17T11:45:30.471Z,932.73
2023-01-17T11:46:30.513Z,932.70
2023-01-17T11:47:30.371Z,932.67
2023-01-17T11:48:30.499Z,932.66
2023-01-17T11:49:30.277Z,932.56
2023-01-17T11:50:30.238Z,932.52
2023-01-17T11:51:30.538Z,932.53
2023-01-17T11:52:30.135Z,932.45
2023-01-17T11:53:30.347Z,932.37
2023-01-17T11:54:30.082Z,932.33
2023-01-17T11:55:30.340Z,932.28
2023-01-17T11:56:29.957Z,932.25
2023-01-17T11:57:29.895Z,932.24
2023-01-17T11:58:29.964Z,932.24
2023-01-17T11:59:29.807Z,932.22
2023-01-17T12:00:29.972Z,932.16
2023-01-17T12:01:29.705Z,932.16
2023-01-17T12:02:29.663Z,932.10
2023-01-17T12:03:29.654Z,932.01
2023-01-17T12:04:29.994Z,931.95
2023-01-17T12:05:29.526Z,931.95
2023-01-17T12:06:29.601Z,931.95
2023-01-17T12:07:29.420Z,931.98
2023-01-17T12:08:29.379Z,931.96
2023-01-17T12:09:29.332Z,932.00
2023-01-17T12:10:29.450Z,932.02
2023-01-17T12:11:29.236Z,932.03
2023-01-17T12:12:29.260Z,932.01
2023-01-17T12:13:29.139Z,931.97
2023-01-17T12:14:29.100Z,932.01
2023-01-17T12:15:29.044Z,931.93
2023-01-17T12:16:29.278Z,931.92
2023-01-17T12:17:28.952Z,931.93
2023-01-17T12:18:29.084Z,931.87
2023-01-17T12:19:28.854Z,931.86
2023-01-17T12:20:28.839Z,931.83
2023-01-17T12:21:28.759Z,931.82
2023-01-17T12:22:28.925Z,931.80
2023-01-17T12:23:28.672Z,931.78
2023-01-17T12:24:28.712Z,931.85
2023-01-17T12:25:28.572Z,931.80
2023-01-17T12:26:28.757Z,931.79
2023-01-17T12:27:28.482Z,931.81
2023-01-17T12:28:28.754Z,931.82
2023-01-17T12:29:28.384Z,931.79
2023-01-17T12:30:28.559Z,931.77
2023-01-17T12:31:28.308Z,931.76